»·PEaware :: CGMWT KBUR-KSNA

CGMWT :: KBUR-KSNA

FLIGHT INFORMATION

Flight Status: Arrived
Operator: Unknown
More flights by this operator :: More flights under this callsign
Pilot: Konrad W. (32064)
Aircraft: Diamond DA-40
(DA40)
More flights by this aircraft type
Origin: KBUR Bob Hope-Burbank
United States
Destination: KSNA John Wayne-Orange Co
United States
More flights between these airports :: More routes between these airports
Route: VNY LAX
File this flight plan on PilotEdge
Remarks:
Altitude:
(Current/Filed)
5,500ft
Speed:
(Current/Filed)
120kts
Departed: 17-Nov-20 08:34 PM
Arrived: 17-Nov-20 09:16 PM
Distance/Time
Traveled:
40nm/0:42
Distance/Time
To Go:
Arrived

Flight Plot

Page will automatically refresh every two minutes.

Flight plan parsing failed; only flown route is shown


Map Options




Map Legend


Flown Route
Filed Route
Departure Airport
Arrival Airport
Navaid (VOR, NDB)
Fix

Horizontal Profiles

Position Reports

Time Latitude Longitude Heading Altitude Ground
Speed
17-Nov-20 20:15 34.200170 -118.364082 355 723ft 0kts
17-Nov-20 20:16 34.200170 -118.364082 355 723ft 0kts
17-Nov-20 20:17 34.200170 -118.364082 355 723ft 0kts
17-Nov-20 20:18 34.200170 -118.364082 355 723ft 0kts
17-Nov-20 20:19 34.200170 -118.364082 355 723ft 0kts
17-Nov-20 20:20 34.200170 -118.364082 355 723ft 0kts
17-Nov-20 20:21 34.200170 -118.364082 355 723ft 0kts
17-Nov-20 20:22 34.200170 -118.364082 355 723ft 0kts
17-Nov-20 20:23 34.200170 -118.364082 355 723ft 0kts
17-Nov-20 20:24 34.200170 -118.364082 355 723ft 0kts
17-Nov-20 20:25 34.200170 -118.364082 355 723ft 0kts
17-Nov-20 20:26 34.200164 -118.364355 249 723ft 9kts
17-Nov-20 20:31 34.198584 -118.368989 179 730ft 0kts
17-Nov-20 20:32 34.198584 -118.368989 179 730ft 0kts
17-Nov-20 20:33 34.197864 -118.364853 91 722ft 61kts
17-Nov-20 20:35 34.197710 -118.331502 91 1326ft 83kts
17-Nov-20 20:35 34.193399 -118.310844 150 1902ft 76kts
17-Nov-20 20:36 34.173721 -118.312864 264 2388ft 104kts
17-Nov-20 20:37 34.175021 -118.352928 271 2692ft 113kts
17-Nov-20 20:38 34.176441 -118.387752 271 3519ft 100kts
17-Nov-20 20:39 34.178241 -118.420675 271 4329ft 97kts
17-Nov-20 20:40 34.180957 -118.453177 271 5138ft 97kts
17-Nov-20 20:41 34.184898 -118.490042 271 5492ft 128kts
17-Nov-20 20:42 34.188372 -118.524760 272 5492ft 135kts
17-Nov-20 20:44 34.156418 -118.540694 159 5496ft 118kts
17-Nov-20 20:45 34.125884 -118.525846 159 5497ft 117kts
17-Nov-20 20:46 34.094983 -118.510804 159 5508ft 121kts
17-Nov-20 20:47 34.063656 -118.495540 159 5501ft 120kts
17-Nov-20 20:48 34.034643 -118.481405 160 5511ft 107kts
17-Nov-20 20:49 34.007676 -118.468270 160 5547ft 106kts
17-Nov-20 20:50 33.980238 -118.454917 160 5545ft 106kts
17-Nov-20 20:51 33.952869 -118.441602 160 5544ft 106kts
17-Nov-20 20:52 33.925832 -118.427537 135 5544ft 110kts
17-Nov-20 20:53 33.905842 -118.402234 143 5550ft 108kts
17-Nov-20 20:54 33.883322 -118.377966 142 5543ft 108kts
17-Nov-20 20:55 33.878155 -118.372387 143 5544ft 108kts
17-Nov-20 21:00 33.747677 -118.231492 143 5545ft 110kts
17-Nov-20 21:01 33.724708 -118.206733 143 5539ft 111kts
17-Nov-20 21:02 33.701789 -118.181899 142 5538ft 111kts
17-Nov-20 21:03 33.678818 -118.157192 144 5538ft 111kts
17-Nov-20 21:04 33.655680 -118.132624 144 5544ft 110kts
17-Nov-20 21:05 33.649019 -118.097773 82 5307ft 140kts
17-Nov-20 21:06 33.657448 -118.051271 82 4301ft 138kts
17-Nov-20 21:07 33.663901 -118.012562 82 3320ft 125kts
17-Nov-20 21:09 33.674616 -117.929823 82 1179ft 111kts
17-Nov-20 21:10 33.685393 -117.900375 28 1062ft 101kts
17-Nov-20 21:11 33.710042 -117.884575 28 1056ft 100kts
17-Nov-20 21:12 33.721351 -117.862547 118 1058ft 92kts
17-Nov-20 21:13 33.701222 -117.853792 197 642ft 91kts
17-Nov-20 21:14 33.679968 -117.866132 208 48ft 69kts
17-Nov-20 21:15 33.676005 -117.869891 296 55ft 0kts
17-Nov-20 21:16 33.674591 -117.871036 207 54ft 27kts
17-Nov-20 21:17 33.674002 -117.872090 299 54ft 0kts
17-Nov-20 21:18 33.674002 -117.872090 299 54ft 0kts

Navigation Log

Ident Type
Flight plan parsing failed, navigation log unavailable